sensor_id;sensor_type;location;lat;lon;timestamp;pressure;altitude;pressure_sealevel;temperature;humidity
10988;BME280;5547;42.672;23.230;2023-03-23T00:02:12;93273.41;;;2.36;100.00
10988;BME280;5547;42.672;23.230;2023-03-23T00:05:12;93256.16;;;2.35;100.00
10988;BME280;5547;42.672;23.230;2023-03-23T00:08:13;93249.31;;;2.03;100.00
10988;BME280;5547;42.672;23.230;2023-03-23T00:11:20;93270.75;;;2.09;100.00
10988;BME280;5547;42.672;23.230;2023-03-23T00:14:20;93244.31;;;1.95;100.00
10988;BME280;5547;42.672;23.230;2023-03-23T00:17:22;93237.25;;;1.99;100.00
10988;BME280;5547;42.672;23.230;2023-03-23T00:20:23;93270.00;;;2.08;100.00
10988;BME280;5547;42.672;23.230;2023-03-23T00:23:25;93274.31;;;1.97;100.00
10988;BME280;5547;42.672;23.230;2023-03-23T00:26:26;93271.22;;;1.92;100.00
10988;BME280;5547;42.672;23.230;2023-03-23T00:29:28;93275.31;;;1.89;100.00
10988;BME280;5547;42.672;23.230;2023-03-23T00:32:29;93270.00;;;2.08;100.00
10988;BME280;5547;42.672;23.230;2023-03-23T00:35:30;93266.63;;;1.85;100.00
10988;BME280;5547;42.672;23.230;2023-03-23T00:38:31;93259.75;;;1.77;100.00
10988;BME280;5547;42.672;23.230;2023-03-23T00:41:31;93288.78;;;2.10;100.00
10988;BME280;5547;42.672;23.230;2023-03-23T00:44:33;93276.41;;;1.88;100.00
10988;BME280;5547;42.672;23.230;2023-03-23T00:47:35;93292.91;;;1.88;100.00
10988;BME280;5547;42.672;23.230;2023-03-23T00:50:36;93297.22;;;2.00;100.00
10988;BME280;5547;42.672;23.230;2023-03-23T00:53:37;93268.97;;;1.90;100.00
10988;BME280;5547;42.672;23.230;2023-03-23T00:56:38;93287.38;;;2.17;100.00
10988;BME280;5547;42.672;23.230;2023-03-23T00:59:41;93293.03;;;2.19;100.00
10988;BME280;5547;42.672;23.230;2023-03-23T01:02:41;93241.16;;;1.85;100.00
10988;BME280;5547;42.672;23.230;2023-03-23T01:05:45;93269.78;;;1.94;100.00
10988;BME280;5547;42.672;23.230;2023-03-23T01:08:47;93280.97;;;2.14;100.00
10988;BME280;5547;42.672;23.230;2023-03-23T01:11:49;93273.78;;;2.11;100.00
10988;BME280;5547;42.672;23.230;2023-03-23T01:14:50;93300.19;;;2.22;100.00
10988;BME280;5547;42.672;23.230;2023-03-23T01:17:51;93297.88;;;2.17;100.00
10988;BME280;5547;42.672;23.230;2023-03-23T01:20:51;93299.63;;;2.09;100.00
10988;BME280;5547;42.672;23.230;2023-03-23T01:23:52;93286.97;;;1.92;100.00
10988;BME280;5547;42.672;23.230;2023-03-23T01:26:52;93267.78;;;1.64;100.00
10988;BME280;5547;42.672;23.230;2023-03-23T01:29:52;93297.16;;;1.74;100.00
10988;BME280;5547;42.672;23.230;2023-03-23T01:32:54;93287.53;;;1.58;100.00
10988;BME280;5547;42.672;23.230;2023-03-23T01:35:55;93264.72;;;1.39;100.00
10988;BME280;5547;42.672;23.230;2023-03-23T01:38:56;93265.25;;;1.29;100.00
10988;BME280;5547;42.672;23.230;2023-03-23T01:41:58;93297.88;;;1.51;100.00
10988;BME280;5547;42.672;23.230;2023-03-23T01:45:20;93292.75;;;1.58;100.00
10988;BME280;5547;42.672;23.230;2023-03-23T01:48:32;93289.69;;;1.53;100.00
10988;BME280;5547;42.672;23.230;2023-03-23T01:51:37;93288.91;;;1.52;100.00
10988;BME280;5547;42.672;23.230;2023-03-23T01:54:40;93272.38;;;1.48;100.00
10988;BME280;5547;42.672;23.230;2023-03-23T01:57:40;93279.75;;;1.42;100.00
10988;BME280;5547;42.672;23.230;2023-03-23T02:00:41;93267.34;;;1.39;100.00
10988;BME280;5547;42.672;23.230;2023-03-23T02:03:44;93274.66;;;1.30;100.00
10988;BME280;5547;42.672;23.230;2023-03-23T02:06:46;93282.19;;;1.55;100.00
10988;BME280;5547;42.672;23.230;2023-03-23T02:09:46;93243.28;;;1.14;100.00
10988;BME280;5547;42.672;23.230;2023-03-23T02:12:47;93254.31;;;1.23;100.00
10988;BME280;5547;42.672;23.230;2023-03-23T02:22:52;93276.19;;;1.74;100.00
10988;BME280;5547;42.672;23.230;2023-03-23T02:36:46;93258.78;;;2.35;100.00
10988;BME280;5547;42.672;23.230;2023-03-23T02:40:15;93256.81;;;2.28;100.00
10988;BME280;5547;42.672;23.230;2023-03-23T02:43:20;93276.19;;;2.46;100.00
10988;BME280;5547;42.672;23.230;2023-03-23T02:46:23;93224.59;;;2.04;100.00
10988;BME280;5547;42.672;23.230;2023-03-23T02:49:25;93274.34;;;2.24;100.00
10988;BME280;5547;42.672;23.230;2023-03-23T02:52:31;93266.22;;;2.29;100.00
10988;BME280;5547;42.672;23.230;2023-03-23T02:55:34;93271.72;;;2.24;100.00
10988;BME280;5547;42.672;23.230;2023-03-23T02:58:35;93280.34;;;2.47;100.00
10988;BME280;5547;42.672;23.230;2023-03-23T03:04:38;93302.75;;;2.41;100.00
10988;BME280;5547;42.672;23.230;2023-03-23T03:07:47;93295.53;;;2.12;100.00
10988;BME280;5547;42.672;23.230;2023-03-23T03:14:10;93301.81;;;1.84;100.00
10988;BME280;5547;42.672;23.230;2023-03-23T03:17:25;93294.00;;;1.64;100.00
10988;BME280;5547;42.672;23.230;2023-03-23T03:20:26;93305.03;;;1.74;100.00
10988;BME280;5547;42.672;23.230;2023-03-23T03:23:32;93313.97;;;1.73;100.00
10988;BME280;5547;42.672;23.230;2023-03-23T03:26:34;93320.34;;;1.72;100.00
10988;BME280;5547;42.672;23.230;2023-03-23T03:29:38;93279.81;;;1.26;100.00
10988;BME280;5547;42.672;23.230;2023-03-23T03:32:44;93312.44;;;1.49;100.00
10988;BME280;5547;42.672;23.230;2023-03-23T03:35:48;93279.28;;;0.98;100.00
10988;BME280;5547;42.672;23.230;2023-03-23T03:38:50;93318.56;;;1.17;100.00
10988;BME280;5547;42.672;23.230;2023-03-23T03:41:51;93307.47;;;1.04;100.00
10988;BME280;5547;42.672;23.230;2023-03-23T03:44:52;93315.94;;;0.98;100.00
10988;BME280;5547;42.672;23.230;2023-03-23T03:47:52;93318.56;;;0.98;100.00
10988;BME280;5547;42.672;23.230;2023-03-23T03:50:52;93310.31;;;0.80;100.00
10988;BME280;5547;42.672;23.230;2023-03-23T03:53:56;93284.78;;;0.57;100.00
10988;BME280;5547;42.672;23.230;2023-03-23T03:56:57;93315.94;;;0.98;100.00
10988;BME280;5547;42.672;23.230;2023-03-23T03:59:57;93265.84;;;0.99;100.00
10988;BME280;5547;42.672;23.230;2023-03-23T04:02:58;93318.28;;;1.42;100.00
10988;BME280;5547;42.672;23.230;2023-03-23T04:06:00;93292.16;;;1.26;100.00
10988;BME280;5547;42.672;23.230;2023-03-23T04:09:03;93319.81;;;1.43;100.00
10988;BME280;5547;42.672;23.230;2023-03-23T04:12:06;93301.47;;;1.23;100.00
10988;BME280;5547;42.672;23.230;2023-03-23T04:15:07;93311.44;;;1.18;100.00
10988;BME280;5547;42.672;23.230;2023-03-23T04:18:07;93286.97;;;0.91;100.00
10988;BME280;5547;42.672;23.230;2023-03-23T04:21:09;93281.31;;;0.89;100.00
10988;BME280;5547;42.672;23.230;2023-03-23T04:24:09;93313.19;;;1.10;100.00
10988;BME280;5547;42.672;23.230;2023-03-23T04:27:10;93286.56;;;0.89;100.00
10988;BME280;5547;42.672;23.230;2023-03-23T04:30:13;93291.66;;;0.81;100.00
10988;BME280;5547;42.672;23.230;2023-03-23T04:33:14;93280.44;;;1.00;100.00
10988;BME280;5547;42.672;23.230;2023-03-23T04:36:14;93314.97;;;1.45;100.00
10988;BME280;5547;42.672;23.230;2023-03-23T04:39:16;93229.00;;;0.92;100.00
10988;BME280;5547;42.672;23.230;2023-03-23T04:42:16;93303.94;;;1.36;100.00
10988;BME280;5547;42.672;23.230;2023-03-23T04:45:19;93320.22;;;1.64;100.00
10988;BME280;5547;42.672;23.230;2023-03-23T04:48:26;93309.41;;;1.46;100.00
10988;BME280;5547;42.672;23.230;2023-03-23T04:51:30;93328.69;;;1.38;100.00
10988;BME280;5547;42.672;23.230;2023-03-23T04:54:31;93294.91;;;1.33;100.00
10988;BME280;5547;42.672;23.230;2023-03-23T04:57:32;93284.91;;;1.19;100.00
10988;BME280;5547;42.672;23.230;2023-03-23T05:00:34;93325.59;;;1.52;100.00
10988;BME280;5547;42.672;23.230;2023-03-23T05:03:35;93321.19;;;1.37;100.00
10988;BME280;5547;42.672;23.230;2023-03-23T05:06:35;93318.56;;;1.56;100.00
10988;BME280;5547;42.672;23.230;2023-03-23T05:09:36;93311.31;;;1.69;100.00
10988;BME280;5547;42.672;23.230;2023-03-23T05:12:37;93285.03;;;1.65;100.00
10988;BME280;5547;42.672;23.230;2023-03-23T05:15:37;93331.75;;;2.02;100.00
10988;BME280;5547;42.672;23.230;2023-03-23T05:18:38;93302.88;;;1.79;100.00
10988;BME280;5547;42.672;23.230;2023-03-23T05:21:39;93350.22;;;2.09;100.00
10988;BME280;5547;42.672;23.230;2023-03-23T05:24:39;93278.00;;;1.50;100.00
10988;BME280;5547;42.672;23.230;2023-03-23T05:27:39;93344.63;;;1.88;100.00
10988;BME280;5547;42.672;23.230;2023-03-23T05:30:43;93330.97;;;1.79;100.00
10988;BME280;5547;42.672;23.230;2023-03-23T05:33:44;93356.72;;;1.96;100.00
10988;BME280;5547;42.672;23.230;2023-03-23T05:36:47;93360.00;;;1.89;100.00
10988;BME280;5547;42.672;23.230;2023-03-23T05:39:48;93358.97;;;1.94;100.00
10988;BME280;5547;42.672;23.230;2023-03-23T05:42:48;93359.72;;;1.95;100.00
10988;BME280;5547;42.672;23.230;2023-03-23T05:45:49;93367.38;;;2.03;100.00
10988;BME280;5547;42.672;23.230;2023-03-23T05:48:49;93373.81;;;2.29;100.00
10988;BME280;5547;42.672;23.230;2023-03-23T05:51:50;93382.03;;;2.50;100.00
10988;BME280;5547;42.672;23.230;2023-03-23T05:54:51;93381.53;;;2.68;100.00
10988;BME280;5547;42.672;23.230;2023-03-23T05:57:52;93379.72;;;2.72;100.00
10988;BME280;5547;42.672;23.230;2023-03-23T06:00:54;93368.63;;;2.82;100.00
10988;BME280;5547;42.672;23.230;2023-03-23T06:03:55;93373.97;;;3.16;100.00
10988;BME280;5547;42.672;23.230;2023-03-23T06:07:00;93340.72;;;3.27;100.00
10988;BME280;5547;42.672;23.230;2023-03-23T06:10:01;93385.13;;;3.66;100.00
10988;BME280;5547;42.672;23.230;2023-03-23T06:13:02;93376.25;;;4.12;100.00
10988;BME280;5547;42.672;23.230;2023-03-23T06:16:03;93369.16;;;4.19;100.00
10988;BME280;5547;42.672;23.230;2023-03-23T06:19:04;93386.75;;;4.49;100.00
10988;BME280;5547;42.672;23.230;2023-03-23T06:22:04;93385.34;;;4.62;100.00
10988;BME280;5547;42.672;23.230;2023-03-23T06:25:06;93372.28;;;4.80;100.00
10988;BME280;5547;42.672;23.230;2023-03-23T06:28:07;93367.69;;;4.67;100.00
10988;BME280;5547;42.672;23.230;2023-03-23T06:31:09;93339.72;;;5.07;100.00
10988;BME280;5547;42.672;23.230;2023-03-23T06:34:09;93380.16;;;5.29;100.00
10988;BME280;5547;42.672;23.230;2023-03-23T06:37:10;93378.09;;;5.70;100.00
10988;BME280;5547;42.672;23.230;2023-03-23T06:40:12;93336.53;;;5.45;100.00
10988;BME280;5547;42.672;23.230;2023-03-23T06:43:13;93377.31;;;5.66;100.00
10988;BME280;5547;42.672;23.230;2023-03-23T06:46:14;93401.06;;;5.62;100.00
10988;BME280;5547;42.672;23.230;2023-03-23T06:49:14;93387.66;;;5.96;100.00
10988;BME280;5547;42.672;23.230;2023-03-23T06:52:15;93378.25;;;5.99;100.00
10988;BME280;5547;42.672;23.230;2023-03-23T06:55:16;93402.00;;;6.09;100.00
10988;BME280;5547;42.672;23.230;2023-03-23T06:58:17;93390.41;;;6.36;100.00
10988;BME280;5547;42.672;23.230;2023-03-23T07:01:17;93371.50;;;6.19;100.00
10988;BME280;5547;42.672;23.230;2023-03-23T07:04:18;93403.25;;;6.55;100.00
10988;BME280;5547;42.672;23.230;2023-03-23T07:07:18;93400.19;;;6.28;100.00
10988;BME280;5547;42.672;23.230;2023-03-23T07:10:18;93378.31;;;6.42;100.00
10988;BME280;5547;42.672;23.230;2023-03-23T07:13:20;93415.38;;;6.70;100.00
10988;BME280;5547;42.672;23.230;2023-03-23T07:16:21;93417.63;;;6.83;100.00
10988;BME280;5547;42.672;23.230;2023-03-23T07:19:21;93407.06;;;6.90;100.00
10988;BME280;5547;42.672;23.230;2023-03-23T07:22:22;93427.44;;;6.86;100.00
10988;BME280;5547;42.672;23.230;2023-03-23T07:25:22;93421.78;;;6.98;100.00
10988;BME280;5547;42.672;23.230;2023-03-23T07:28:23;93419.13;;;6.87;100.00
10988;BME280;5547;42.672;23.230;2023-03-23T07:31:23;93426.69;;;6.89;100.00
10988;BME280;5547;42.672;23.230;2023-03-23T07:34:24;93378.72;;;6.65;100.00
10988;BME280;5547;42.672;23.230;2023-03-23T07:37:24;93379.09;;;6.96;100.00
10988;BME280;5547;42.672;23.230;2023-03-23T07:40:26;93412.34;;;7.15;100.00
10988;BME280;5547;42.672;23.230;2023-03-23T07:43:26;93436.13;;;7.40;100.00
10988;BME280;5547;42.672;23.230;2023-03-23T07:46:27;93413.84;;;7.27;100.00
10988;BME280;5547;42.672;23.230;2023-03-23T07:49:27;93417.94;;;7.56;100.00
10988;BME280;5547;42.672;23.230;2023-03-23T07:52:28;93408.88;;;7.50;100.00
10988;BME280;5547;42.672;23.230;2023-03-23T07:55:30;93451.94;;;7.79;100.00
10988;BME280;5547;42.672;23.230;2023-03-23T07:58:31;93434.94;;;7.70;100.00
10988;BME280;5547;42.672;23.230;2023-03-23T08:01:32;93446.63;;;7.87;100.00
10988;BME280;5547;42.672;23.230;2023-03-23T08:04:32;93429.44;;;8.20;100.00
10988;BME280;5547;42.672;23.230;2023-03-23T08:07:37;93360.88;;;7.41;100.00
10988;BME280;5547;42.672;23.230;2023-03-23T08:10:37;93453.31;;;8.13;100.00
10988;BME280;5547;42.672;23.230;2023-03-23T08:13:37;93420.00;;;8.19;100.00
10988;BME280;5547;42.672;23.230;2023-03-23T08:16:38;93451.22;;;8.67;100.00
10988;BME280;5547;42.672;23.230;2023-03-23T08:19:39;93411.88;;;8.55;100.00
10988;BME280;5547;42.672;23.230;2023-03-23T08:22:40;93426.44;;;8.88;100.00
10988;BME280;5547;42.672;23.230;2023-03-23T08:25:42;93444.03;;;9.20;100.00
10988;BME280;5547;42.672;23.230;2023-03-23T08:28:46;93454.19;;;9.29;100.00
10988;BME280;5547;42.672;23.230;2023-03-23T08:31:47;93451.50;;;9.36;100.00
10988;BME280;5547;42.672;23.230;2023-03-23T08:34:47;93418.75;;;9.04;100.00
10988;BME280;5547;42.672;23.230;2023-03-23T08:37:49;93430.88;;;9.51;100.00
10988;BME280;5547;42.672;23.230;2023-03-23T08:41:02;93447.53;;;9.55;100.00
10988;BME280;5547;42.672;23.230;2023-03-23T08:44:04;93453.38;;;9.77;100.00
10988;BME280;5547;42.672;23.230;2023-03-23T08:47:05;93436.31;;;9.78;100.00
10988;BME280;5547;42.672;23.230;2023-03-23T08:50:07;93449.94;;;9.80;100.00
10988;BME280;5547;42.672;23.230;2023-03-23T08:53:08;93448.75;;;9.84;86.60
10988;BME280;5547;42.672;23.230;2023-03-23T08:56:10;93445.34;;;10.18;81.79
10988;BME280;5547;42.672;23.230;2023-03-23T08:59:12;93432.72;;;10.29;81.66
10988;BME280;5547;42.672;23.230;2023-03-23T09:02:12;93446.03;;;10.26;82.75
10988;BME280;5547;42.672;23.230;2023-03-23T09:05:14;93443.25;;;10.02;75.93
10988;BME280;5547;42.672;23.230;2023-03-23T09:08:15;93444.72;;;10.07;78.88
10988;BME280;5547;42.672;23.230;2023-03-23T09:11:15;93461.00;;;10.47;80.97
10988;BME280;5547;42.672;23.230;2023-03-23T09:14:16;93448.84;;;10.46;83.17
10988;BME280;5547;42.672;23.230;2023-03-23T09:17:17;93436.59;;;10.21;80.34
10988;BME280;5547;42.672;23.230;2023-03-23T09:20:20;93437.56;;;10.35;79.57
10988;BME280;5547;42.672;23.230;2023-03-23T09:23:21;93437.44;;;10.45;78.08
10988;BME280;5547;42.672;23.230;2023-03-23T09:26:21;93411.06;;;10.31;79.06
10988;BME280;5547;42.672;23.230;2023-03-23T09:29:21;93432.59;;;10.02;75.57
10988;BME280;5547;42.672;23.230;2023-03-23T09:32:22;93407.41;;;9.83;75.73
10988;BME280;5547;42.672;23.230;2023-03-23T09:35:23;93423.59;;;10.27;79.25
10988;BME280;5547;42.672;23.230;2023-03-23T09:38:24;93439.75;;;10.43;76.24
10988;BME280;5547;42.672;23.230;2023-03-23T09:51:37;93432.50;;;10.75;73.51
10988;BME280;5547;42.672;23.230;2023-03-23T09:54:43;93437.13;;;10.98;72.40
10988;BME280;5547;42.672;23.230;2023-03-23T10:01:24;93432.59;;;11.18;72.56
10988;BME280;5547;42.672;23.230;2023-03-23T10:04:45;93430.28;;;10.97;72.28
10988;BME280;5547;42.672;23.230;2023-03-23T10:07:46;93423.84;;;10.94;74.03
10988;BME280;5547;42.672;23.230;2023-03-23T10:14:36;93428.34;;;11.24;69.07
10988;BME280;5547;42.672;23.230;2023-03-23T10:18:00;93428.09;;;11.15;72.25
10988;BME280;5547;42.672;23.230;2023-03-23T10:21:02;93413.97;;;10.94;70.50
10988;BME280;5547;42.672;23.230;2023-03-23T10:24:07;93422.50;;;10.82;72.02
10988;BME280;5547;42.672;23.230;2023-03-23T10:27:19;93420.03;;;10.95;70.08
10988;BME280;5547;42.672;23.230;2023-03-23T10:30:31;93419.13;;;11.05;71.63
10988;BME280;5547;42.672;23.230;2023-03-23T10:33:42;93415.72;;;11.05;72.37
10988;BME280;5547;42.672;23.230;2023-03-23T10:37:09;93423.34;;;11.50;73.87
10988;BME280;5547;42.672;23.230;2023-03-23T10:40:18;93413.22;;;11.41;71.12
10988;BME280;5547;42.672;23.230;2023-03-23T10:43:19;93385.63;;;11.08;68.43
10988;BME280;5547;42.672;23.230;2023-03-23T10:46:46;93420.97;;;11.55;67.62
10988;BME280;5547;42.672;23.230;2023-03-23T10:49:58;93411.78;;;11.13;71.15
10988;BME280;5547;42.672;23.230;2023-03-23T10:53:00;93387.22;;;10.78;71.09
10988;BME280;5547;42.672;23.230;2023-03-23T10:56:01;93409.97;;;11.06;68.97
10988;BME280;5547;42.672;23.230;2023-03-23T10:59:12;93393.88;;;11.13;68.70
10988;BME280;5547;42.672;23.230;2023-03-23T11:02:20;93413.16;;;11.45;69.26
10988;BME280;5547;42.672;23.230;2023-03-23T11:05:22;93389.66;;;11.40;69.88
10988;BME280;5547;42.672;23.230;2023-03-23T11:08:29;93407.63;;;11.35;67.97
10988;BME280;5547;42.672;23.230;2023-03-23T11:11:36;93377.56;;;11.35;68.41
10988;BME280;5547;42.672;23.230;2023-03-23T11:14:37;93395.78;;;11.60;69.16
10988;BME280;5547;42.672;23.230;2023-03-23T11:17:39;93392.22;;;11.47;67.45
10988;BME280;5547;42.672;23.230;2023-03-23T11:20:42;93394.06;;;11.50;67.25
10988;BME280;5547;42.672;23.230;2023-03-23T11:23:51;93385.50;;;11.15;67.50
10988;BME280;5547;42.672;23.230;2023-03-23T11:26:56;93358.59;;;11.33;66.69
10988;BME280;5547;42.672;23.230;2023-03-23T11:30:14;93360.53;;;11.72;64.91
10988;BME280;5547;42.672;23.230;2023-03-23T11:33:18;93362.94;;;11.87;64.95
10988;BME280;5547;42.672;23.230;2023-03-23T11:36:20;93385.00;;;11.67;67.23
10988;BME280;5547;42.672;23.230;2023-03-23T11:42:42;93382.34;;;11.87;64.48
10988;BME280;5547;42.672;23.230;2023-03-23T11:46:11;93370.56;;;11.88;64.27
10988;BME280;5547;42.672;23.230;2023-03-23T11:49:18;93354.31;;;11.99;65.21
10988;BME280;5547;42.672;23.230;2023-03-23T11:58:44;93333.84;;;11.96;64.48
10988;BME280;5547;42.672;23.230;2023-03-23T12:08:26;93296.03;;;11.41;62.86
10988;BME280;5547;42.672;23.230;2023-03-23T12:15:30;93357.94;;;12.45;59.45
10988;BME280;5547;42.672;23.230;2023-03-23T12:22:33;93331.25;;;12.29;58.89
10988;BME280;5547;42.672;23.230;2023-03-23T12:29:51;93340.13;;;12.58;62.29
10988;BME280;5547;42.672;23.230;2023-03-23T12:46:14;93337.13;;;12.56;58.40
10988;BME280;5547;42.672;23.230;2023-03-23T12:55:53;93327.88;;;12.77;59.85
10988;BME280;5547;42.672;23.230;2023-03-23T13:02:23;93331.88;;;12.86;59.03
10988;BME280;5547;42.672;23.230;2023-03-23T13:05:31;93297.09;;;12.73;60.24
10988;BME280;5547;42.672;23.230;2023-03-23T13:08:36;93328.81;;;12.87;58.53
10988;BME280;5547;42.672;23.230;2023-03-23T13:11:40;93318.22;;;12.67;58.16
10988;BME280;5547;42.672;23.230;2023-03-23T13:18:21;93322.38;;;12.52;56.40
10988;BME280;5547;42.672;23.230;2023-03-23T13:21:32;93274.44;;;12.65;58.23
10988;BME280;5547;42.672;23.230;2023-03-23T13:24:46;93263.09;;;12.60;59.97
10988;BME280;5547;42.672;23.230;2023-03-23T13:27:57;93290.84;;;12.79;57.78
10988;BME280;5547;42.672;23.230;2023-03-23T13:31:13;93309.78;;;12.85;56.69
10988;BME280;5547;42.672;23.230;2023-03-23T13:34:23;93298.28;;;12.88;56.12
10988;BME280;5547;42.672;23.230;2023-03-23T13:37:26;93312.47;;;12.85;54.45
10988;BME280;5547;42.672;23.230;2023-03-23T13:40:29;93285.28;;;12.57;57.46
10988;BME280;5547;42.672;23.230;2023-03-23T13:43:33;93272.75;;;12.87;55.78
10988;BME280;5547;42.672;23.230;2023-03-23T13:46:34;93308.28;;;12.68;54.51
10988;BME280;5547;42.672;23.230;2023-03-23T13:49:46;93309.03;;;12.68;55.72
10988;BME280;5547;42.672;23.230;2023-03-23T13:52:58;93298.78;;;12.34;56.33
10988;BME280;5547;42.672;23.230;2023-03-23T14:02:39;93257.41;;;12.09;56.51
10988;BME280;5547;42.672;23.230;2023-03-23T14:05:45;93284.59;;;12.21;58.01
10988;BME280;5547;42.672;23.230;2023-03-23T14:08:50;93283.19;;;12.32;57.91
10988;BME280;5547;42.672;23.230;2023-03-23T14:12:01;93292.84;;;12.26;58.35
10988;BME280;5547;42.672;23.230;2023-03-23T14:15:12;93287.00;;;12.31;57.33
10988;BME280;5547;42.672;23.230;2023-03-23T14:18:15;93277.16;;;12.28;58.16
10988;BME280;5547;42.672;23.230;2023-03-23T14:21:22;93252.22;;;12.02;58.24
10988;BME280;5547;42.672;23.230;2023-03-23T14:24:28;93272.00;;;12.37;57.26
10988;BME280;5547;42.672;23.230;2023-03-23T14:27:29;93268.97;;;12.03;59.20
10988;BME280;5547;42.672;23.230;2023-03-23T14:30:35;93252.38;;;11.95;58.31
10988;BME280;5547;42.672;23.230;2023-03-23T14:33:38;93244.56;;;12.04;57.38
10988;BME280;5547;42.672;23.230;2023-03-23T14:36:39;93253.91;;;12.12;56.07
10988;BME280;5547;42.672;23.230;2023-03-23T14:39:44;93260.41;;;12.11;57.14
10988;BME280;5547;42.672;23.230;2023-03-23T14:42:46;93282.84;;;11.94;59.01
10988;BME280;5547;42.672;23.230;2023-03-23T14:45:53;93283.19;;;11.96;59.45
10988;BME280;5547;42.672;23.230;2023-03-23T14:48:54;93277.88;;;11.96;58.75
10988;BME280;5547;42.672;23.230;2023-03-23T14:51:54;93282.03;;;11.97;59.67
10988;BME280;5547;42.672;23.230;2023-03-23T14:55:11;93269.13;;;11.95;59.23
10988;BME280;5547;42.672;23.230;2023-03-23T14:58:14;93260.16;;;11.86;59.41
10988;BME280;5547;42.672;23.230;2023-03-23T15:01:27;93267.59;;;11.94;60.27
10988;BME280;5547;42.672;23.230;2023-03-23T15:04:28;93268.72;;;11.97;57.58
10988;BME280;5547;42.672;23.230;2023-03-23T15:07:33;93259.00;;;11.87;59.80
10988;BME280;5547;42.672;23.230;2023-03-23T15:10:34;93224.81;;;11.65;59.77
10988;BME280;5547;42.672;23.230;2023-03-23T15:13:35;93253.19;;;11.92;59.66
10988;BME280;5547;42.672;23.230;2023-03-23T15:16:36;93235.84;;;11.84;59.50
10988;BME280;5547;42.672;23.230;2023-03-23T15:19:42;93253.31;;;11.85;58.60
10988;BME280;5547;42.672;23.230;2023-03-23T15:22:47;93250.13;;;11.73;59.32
10988;BME280;5547;42.672;23.230;2023-03-23T15:25:51;93247.75;;;11.59;60.49
10988;BME280;5547;42.672;23.230;2023-03-23T15:29:05;93249.28;;;11.60;60.37
10988;BME280;5547;42.672;23.230;2023-03-23T15:32:10;93256.78;;;11.65;60.89
10988;BME280;5547;42.672;23.230;2023-03-23T15:35:20;93266.13;;;11.33;63.17
10988;BME280;5547;42.672;23.230;2023-03-23T15:38:30;93267.38;;;11.29;62.44
10988;BME280;5547;42.672;23.230;2023-03-23T15:41:32;93231.44;;;10.97;63.74
10988;BME280;5547;42.672;23.230;2023-03-23T15:44:35;93238.63;;;10.77;63.90
10988;BME280;5547;42.672;23.230;2023-03-23T15:50:42;93184.28;;;10.34;64.38
10988;BME280;5547;42.672;23.230;2023-03-23T15:53:44;93267.50;;;10.78;65.91
10988;BME280;5547;42.672;23.230;2023-03-23T15:56:44;93256.06;;;10.58;66.31
10988;BME280;5547;42.672;23.230;2023-03-23T15:59:45;93276.88;;;10.63;66.78
10988;BME280;5547;42.672;23.230;2023-03-23T16:02:47;93273.44;;;10.39;68.38
10988;BME280;5547;42.672;23.230;2023-03-23T16:05:50;93278.97;;;10.24;69.43
10988;BME280;5547;42.672;23.230;2023-03-23T16:08:51;93234.72;;;9.83;68.40
10988;BME280;5547;42.672;23.230;2023-03-23T16:11:52;93207.56;;;9.72;68.97
10988;BME280;5547;42.672;23.230;2023-03-23T16:14:52;93286.09;;;10.00;71.21
10988;BME280;5547;42.672;23.230;2023-03-23T16:17:53;93276.50;;;9.83;71.24
10988;BME280;5547;42.672;23.230;2023-03-23T16:20:53;93278.34;;;9.55;72.34
10988;BME280;5547;42.672;23.230;2023-03-23T16:23:54;93272.59;;;9.26;73.63
10988;BME280;5547;42.672;23.230;2023-03-23T16:26:55;93259.28;;;8.95;74.88
10988;BME280;5547;42.672;23.230;2023-03-23T16:29:55;93251.19;;;8.68;75.92
10988;BME280;5547;42.672;23.230;2023-03-23T16:32:57;93285.19;;;8.80;77.12
10988;BME280;5547;42.672;23.230;2023-03-23T16:35:58;93278.94;;;8.60;79.43
10988;BME280;5547;42.672;23.230;2023-03-23T16:38:59;93288.94;;;8.41;80.80
10988;BME280;5547;42.672;23.230;2023-03-23T16:41:59;93265.28;;;8.06;83.11
10988;BME280;5547;42.672;23.230;2023-03-23T16:45:00;93279.28;;;8.06;84.37
10988;BME280;5547;42.672;23.230;2023-03-23T16:48:00;93292.59;;;7.92;84.93
10988;BME280;5547;42.672;23.230;2023-03-23T16:51:01;93281.31;;;7.84;85.73
10988;BME280;5547;42.672;23.230;2023-03-23T16:54:01;93286.28;;;7.75;85.89
10988;BME280;5547;42.672;23.230;2023-03-23T16:57:02;93286.69;;;7.70;86.04
10988;BME280;5547;42.672;23.230;2023-03-23T17:00:14;93238.06;;;7.35;86.73
10988;BME280;5547;42.672;23.230;2023-03-23T17:03:17;93278.44;;;7.53;86.69
10988;BME280;5547;42.672;23.230;2023-03-23T17:06:17;93273.97;;;7.36;87.31
10988;BME280;5547;42.672;23.230;2023-03-23T17:09:18;93272.91;;;7.15;88.39
10988;BME280;5547;42.672;23.230;2023-03-23T17:12:18;93222.41;;;6.70;89.69
10988;BME280;5547;42.672;23.230;2023-03-23T17:15:19;93273.34;;;6.96;89.21
10988;BME280;5547;42.672;23.230;2023-03-23T17:18:19;93244.69;;;6.62;90.42
10988;BME280;5547;42.672;23.230;2023-03-23T17:21:20;93231.88;;;6.39;90.80
10988;BME280;5547;42.672;23.230;2023-03-23T17:24:24;93293.00;;;6.73;94.01
10988;BME280;5547;42.672;23.230;2023-03-23T17:27:26;93248.47;;;6.40;95.44
10988;BME280;5547;42.672;23.230;2023-03-23T17:30:26;93303.22;;;6.53;95.22
10988;BME280;5547;42.672;23.230;2023-03-23T17:33:27;93305.09;;;6.46;95.58
10988;BME280;5547;42.672;23.230;2023-03-23T17:36:27;93305.84;;;6.46;96.89
10988;BME280;5547;42.672;23.230;2023-03-23T17:39:28;93317.94;;;6.40;95.97
10988;BME280;5547;42.672;23.230;2023-03-23T17:42:29;93313.78;;;6.28;96.85
10988;BME280;5547;42.672;23.230;2023-03-23T17:45:29;93291.50;;;6.15;100.00
10988;BME280;5547;42.672;23.230;2023-03-23T17:48:30;93325.84;;;6.29;100.00
10988;BME280;5547;42.672;23.230;2023-03-23T17:51:30;93329.22;;;6.16;100.00
10988;BME280;5547;42.672;23.230;2023-03-23T17:54:31;93342.81;;;6.25;98.81
10988;BME280;5547;42.672;23.230;2023-03-23T17:57:31;93245.41;;;5.77;97.09
10988;BME280;5547;42.672;23.230;2023-03-23T18:00:31;93330.38;;;6.18;99.15